Time;durP1;ratioP1;P1;durP2;ratioP2;P2;SDS_P1;SDS_P2;PMS_P1;PMS_P2;Temp;Humidity;BMP_temperature;BMP_pressure;BME280_temperature;BME280_humidity;BME280_pressure;Samples;Min_cycle;Max_cycle;Signal;HPM_P1;HPM_P2
2023/05/01 07:42:28;;;;;;;3.10;2.20;;;;;;;14.06;43.91;101408.44;104288;1280;599795;-69
2023/05/01 07:44:56;;;;;;;4.30;2.00;;;;;;;14.04;42.54;101405.23;106546;1257;60531;-69
2023/05/01 07:47:26;;;;;;;5.10;2.50;;;;;;;13.97;43.10;101409.66;106998;1247;61179;-69
2023/05/01 07:49:55;;;;;;;3.40;2.10;;;;;;;14.00;43.47;101408.55;106999;1248;61756;-69
2023/05/01 07:52:25;;;;;;;5.00;2.20;;;;;;;14.06;42.98;101406.00;106775;1249;71589;-69
2023/05/01 07:54:53;;;;;;;4.90;2.00;;;;;;;14.13;43.13;101408.81;106772;1248;70235;-69
2023/05/01 07:57:23;;;;;;;3.80;1.90;;;;;;;14.18;43.50;101405.94;108746;1248;63624;-72
2023/05/01 07:59:55;;;;;;;3.90;2.40;;;;;;;14.30;42.87;101413.09;108258;1247;58524;-70
2023/05/01 08:02:24;;;;;;;3.70;1.90;;;;;;;14.35;42.13;101418.70;107286;1247;59695;-71
2023/05/01 08:04:53;;;;;;;4.40;2.20;;;;;;;14.38;41.98;101411.28;107147;1254;70296;-77
2023/05/01 08:07:22;;;;;;;6.10;2.20;;;;;;;14.42;41.54;101423.41;107247;1244;72107;-75
2023/05/01 08:09:51;;;;;;;4.30;2.10;;;;;;;14.46;40.90;101435.33;107326;1248;60563;-84
2023/05/01 08:12:20;;;;;;;4.90;2.40;;;;;;;14.47;40.80;101430.34;107400;1244;64166;-78
2023/05/01 08:14:49;;;;;;;5.30;3.10;;;;;;;14.50;40.88;101432.24;107388;1247;60873;-78
2023/05/01 08:17:18;;;;;;;3.70;2.00;;;;;;;14.59;41.00;101426.14;107388;1245;60835;-73
2023/05/01 08:19:46;;;;;;;5.70;2.30;;;;;;;14.72;41.05;101432.27;107005;1246;72220;-74
2023/05/01 08:22:15;;;;;;;4.20;2.50;;;;;;;14.88;40.60;101429.63;109117;1244;62456;-73
2023/05/01 08:24:44;;;;;;;3.40;1.90;;;;;;;14.93;39.89;101431.48;107881;1247;59960;-73
2023/05/01 08:27:13;;;;;;;4.60;1.90;;;;;;;14.98;39.57;101429.20;106889;1249;74225;-73
2023/05/01 08:29:42;;;;;;;7.50;2.10;;;;;;;14.98;40.39;101431.81;108693;1245;61292;-73
2023/05/01 08:32:11;;;;;;;3.50;1.80;;;;;;;15.23;40.41;101424.84;107692;1247;60807;-73
2023/05/01 08:34:40;;;;;;;4.70;2.00;;;;;;;15.32;40.03;101433.31;106891;1246;72809;-78
2023/05/01 08:37:08;;;;;;;5.10;2.20;;;;;;;15.18;40.35;101425.14;107164;1245;72262;-79
2023/05/01 08:39:37;;;;;;;4.40;2.00;;;;;;;15.37;39.63;101430.98;107225;1254;59944;-71
2023/05/01 08:42:07;;;;;;;4.20;2.00;;;;;;;15.32;39.33;101436.05;107225;1257;62750;-77
2023/05/01 08:44:41;;;;;;;4.00;1.90;;;;;;;15.17;38.99;101443.79;107049;1247;60417;-73
2023/05/01 08:47:12;;;;;;;4.60;1.70;;;;;;;15.08;38.56;101444.38;106839;1249;60787;-78
2023/05/01 08:49:42;;;;;;;3.20;1.90;;;;;;;15.14;38.49;101445.33;107664;1242;63030;-79
2023/05/01 08:52:13;;;;;;;6.50;4.20;;;;;;;15.04;38.73;101448.52;107694;1251;63595;-75
2023/05/01 08:54:44;;;;;;;5.70;2.90;;;;;;;15.00;38.57;101447.97;107584;1241;69567;-79
2023/05/01 08:57:14;;;;;;;5.80;4.00;;;;;;;15.03;38.00;101433.72;107484;1248;73658;-68
2023/05/01 08:59:43;;;;;;;5.10;1.90;;;;;;;15.20;37.29;101454.30;107336;1238;60702;-68
2023/05/01 09:02:14;;;;;;;5.20;2.10;;;;;;;15.17;36.50;101448.89;107285;1242;57556;-68
2023/05/01 09:04:44;;;;;;;4.40;1.80;;;;;;;15.23;36.34;101454.77;107419;1242;72503;-68
2023/05/01 09:07:14;;;;;;;3.90;1.70;;;;;;;15.06;35.54;101447.30;107606;1248;72672;-69
2023/05/01 09:09:43;;;;;;;2.90;1.50;;;;;;;15.18;36.62;101447.20;107504;1237;71062;-69
2023/05/01 09:12:24;;;;;;;4.70;2.00;;;;;;;15.26;36.03;101441.69;107601;1239;73762;-69
2023/05/01 09:14:55;;;;;;;3.40;1.50;;;;;;;15.33;35.42;101444.05;107629;1250;57713;-69
2023/05/01 09:17:24;;;;;;;3.40;1.70;;;;;;;15.40;35.80;101444.59;107689;1239;59045;-71
2023/05/01 09:19:54;;;;;;;2.80;1.40;;;;;;;15.45;36.35;101443.62;107612;1244;71941;-71
2023/05/01 09:22:23;;;;;;;4.90;1.80;;;;;;;15.48;36.62;101440.64;107710;1239;62316;-70
2023/05/01 09:24:52;;;;;;;2.90;1.70;;;;;;;15.60;36.92;101441.18;107629;1247;59314;-71
2023/05/01 09:27:21;;;;;;;5.10;2.40;;;;;;;15.68;36.97;101442.27;107661;1241;63200;-72
2023/05/01 09:29:50;;;;;;;6.00;2.40;;;;;;;15.91;36.66;101433.08;107570;1242;59435;-74
2023/05/01 09:32:24;;;;;;;3.50;1.70;;;;;;;16.06;36.35;101436.36;107801;1238;59090;-72
2023/05/01 09:34:55;;;;;;;6.20;3.00;;;;;;;16.13;36.77;101435.58;107491;1238;72334;-70
2023/05/01 09:37:31;;;;;;;3.80;2.10;;;;;;;16.19;36.66;101445.95;107525;1241;61587;-71
2023/05/01 09:40:12;;;;;;;8.30;2.40;;;;;;;16.25;35.60;101446.50;107424;1250;69711;-71
2023/05/01 09:42:50;;;;;;;2.80;2.00;;;;;;;16.16;35.81;101449.71;107626;1250;62894;-72
2023/05/01 09:45:19;;;;;;;7.00;1.80;;;;;;;15.94;35.51;101444.35;107517;1241;58902;-72
2023/05/01 09:47:49;;;;;;;3.70;1.80;;;;;;;16.10;35.40;101434.56;107468;1242;58952;-74
2023/05/01 09:50:33;;;;;;;6.10;3.00;;;;;;;16.17;35.33;101438.71;107698;1238;72667;-72
2023/05/01 09:53:05;;;;;;;4.00;1.80;;;;;;;16.08;35.57;101442.48;107588;1250;72520;-73
2023/05/01 09:55:34;;;;;;;7.90;5.20;;;;;;;16.15;36.03;101429.64;107613;1238;70828;-72
2023/05/01 09:58:03;;;;;;;4.40;1.70;;;;;;;16.33;35.92;101430.70;107645;1238;74095;-73
2023/05/01 10:00:46;;;;;;;4.90;2.10;;;;;;;16.33;35.94;101428.59;107712;1238;61058;-72
2023/05/01 10:03:15;;;;;;;3.10;2.00;;;;;;;16.37;35.64;101439.91;107502;1242;59021;-75
2023/05/01 10:05:45;;;;;;;4.90;2.30;;;;;;;16.49;35.16;101444.27;107838;1238;72768;-74
2023/05/01 10:08:14;;;;;;;3.40;1.70;;;;;;;16.42;36.23;101446.95;107592;1238;72088;-76
2023/05/01 10:10:43;;;;;;;5.00;2.10;;;;;;;16.36;36.26;101447.14;109758;1237;60344;-76
2023/05/01 10:13:16;;;;;;;4.30;1.80;;;;;;;16.28;36.56;101437.07;108825;1239;63178;-75
2023/05/01 10:15:45;;;;;;;4.70;2.50;;;;;;;16.37;36.72;101426.81;107690;1245;59075;-77
2023/05/01 10:18:16;;;;;;;3.70;2.30;;;;;;;16.52;36.80;101437.89;107561;1241;58392;-72
2023/05/01 10:20:45;;;;;;;3.10;2.00;;;;;;;16.67;36.82;101436.55;107472;1238;71842;-71
2023/05/01 10:23:14;;;;;;;10.70;2.70;;;;;;;16.81;36.29;101435.54;107600;1238;71941;-71
2023/05/01 10:25:44;;;;;;;3.40;2.00;;;;;;;16.97;34.84;101429.63;107553;1238;70225;-72
2023/05/01 10:28:13;;;;;;;3.30;1.80;;;;;;;17.38;34.50;101447.61;107578;1242;73448;-70
2023/05/01 10:30:44;;;;;;;3.10;1.90;;;;;;;17.66;34.03;101444.19;107601;1239;61022;-72
2023/05/01 10:33:14;;;;;;;4.40;2.50;;;;;;;17.61;33.97;101443.90;107434;1242;57313;-72
2023/05/01 10:35:56;;;;;;;3.60;1.80;;;;;;;17.77;34.53;101439.30;107475;1238;73589;-70
2023/05/01 10:38:36;;;;;;;8.20;1.90;;;;;;;18.03;34.26;101428.10;107635;1238;71565;-73
2023/05/01 10:41:05;;;;;;;3.80;1.60;;;;;;;18.09;34.17;101442.70;107599;1242;59586;-73
2023/05/01 10:43:34;;;;;;;4.90;2.10;;;;;;;18.30;33.65;101442.89;107763;1242;64625;-73
2023/05/01 10:46:09;;;;;;;3.40;1.60;;;;;;;18.28;32.92;101447.89;107302;1237;60318;-73
2023/05/01 10:48:47;;;;;;;4.90;1.90;;;;;;;18.10;32.72;101442.31;108335;1239;61500;-73
2023/05/01 10:51:22;;;;;;;7.00;2.60;;;;;;;18.37;33.12;101434.31;107816;1250;73260;-74
2023/05/01 10:54:13;;;;;;;3.40;2.00;;;;;;;18.59;32.84;101432.59;107679;1238;74320;-73
2023/05/01 10:56:43;;;;;;;8.40;4.00;;;;;;;18.64;32.47;101432.30;107588;1237;60350;-74
2023/05/01 10:59:13;;;;;;;5.00;2.10;;;;;;;18.76;32.38;101437.89;107546;1242;72810;-77
2023/05/01 11:01:44;;;;;;;6.50;1.80;;;;;;;19.00;31.67;101442.48;107789;1242;58963;-73
2023/05/01 11:04:20;;;;;;;3.50;2.00;;;;;;;18.84;31.51;101437.45;107822;1241;57370;-74
2023/05/01 11:07:04;;;;;;;4.10;1.70;;;;;;;18.93;31.80;101437.50;107861;1251;61810;-71
2023/05/01 11:09:56;;;;;;;5.30;1.80;;;;;;;19.24;31.43;101429.17;107833;1240;71326;-71
2023/05/01 11:12:50;;;;;;;6.20;1.60;;;;;;;19.43;30.68;101428.20;107681;1246;70290;-72
2023/05/01 11:15:33;;;;;;;5.90;1.90;;;;;;;19.43;30.40;101426.09;107552;1242;74834;-72
2023/05/01 11:18:04;;;;;;;3.20;1.90;;;;;;;19.66;30.45;101429.06;107658;1246;57572;-72
2023/05/01 11:20:36;;;;;;;2.50;1.60;;;;;;;19.84;29.97;101430.09;107752;1242;60381;-73
2023/05/01 11:23:06;;;;;;;6.10;2.30;;;;;;;19.84;29.89;101416.70;107641;1250;61822;-71
2023/05/01 11:25:35;;;;;;;4.70;1.70;;;;;;;19.96;29.77;101420.80;107647;1239;61204;-73
2023/05/01 11:28:05;;;;;;;2.90;1.60;;;;;;;19.98;29.50;101427.77;107491;1241;69967;-72
2023/05/01 11:30:39;;;;;;;3.40;2.00;;;;;;;20.01;29.27;101425.25;107517;1248;63005;-73
2023/05/01 11:33:08;;;;;;;2.90;1.60;;;;;;;19.75;29.24;101429.39;107384;1238;60358;-72
2023/05/01 11:35:39;;;;;;;5.90;2.30;;;;;;;20.20;28.41;101422.89;107397;1249;59710;-72
2023/05/01 11:38:20;;;;;;;4.20;1.70;;;;;;;20.26;28.18;101414.40;107442;1250;72864;-71
2023/05/01 11:40:56;;;;;;;3.60;1.70;;;;;;;20.53;28.07;101414.48;107340;1244;72823;-70
2023/05/01 11:43:25;;;;;;;3.30;1.40;;;;;;;20.74;28.17;101415.85;107500;1240;60294;-72
2023/05/01 11:46:00;;;;;;;3.60;1.40;;;;;;;20.80;27.10;101420.44;107477;1246;63092;-73
2023/05/01 11:48:31;;;;;;;4.10;1.90;;;;;;;20.15;27.46;101421.92;107366;1241;57435;-73
2023/05/01 11:51:12;;;;;;;4.10;1.80;;;;;;;20.55;27.61;101410.17;107507;1242;61155;-74
2023/05/01 11:53:40;;;;;;;6.10;3.20;;;;;;;20.62;27.27;101409.77;107465;1242;73426;-74
2023/05/01 11:56:23;;;;;;;4.10;2.10;;;;;;;20.71;27.27;101408.33;107437;1242;61424;-74
2023/05/01 11:58:57;;;;;;;3.50;1.40;;;;;;;21.28;25.72;101402.67;107569;1238;71403;-74
2023/05/01 12:01:37;;;;;;;4.50;1.70;;;;;;;21.27;25.76;101405.96;107681;1241;74419;-74
2023/05/01 12:04:07;;;;;;;2.80;1.50;;;;;;;21.29;25.29;101405.03;107421;1247;58756;-75
2023/05/01 12:06:45;;;;;;;3.70;1.50;;;;;;;21.46;24.71;101401.02;107614;1242;59168;-74
2023/05/01 12:09:23;;;;;;;5.70;1.80;;;;;;;21.74;24.33;101396.98;107526;1242;72738;-74
2023/05/01 12:11:53;;;;;;;4.80;1.80;;;;;;;21.53;24.90;101402.80;107509;1249;61999;-73
2023/05/01 12:14:23;;;;;;;3.10;1.90;;;;;;;21.99;25.48;101395.30;107828;1247;69645;-82
2023/05/01 12:16:52;;;;;;;3.80;1.60;;;;;;;22.39;24.88;101396.01;107679;1241;73719;-72
2023/05/01 12:19:21;;;;;;;4.50;1.90;;;;;;;22.23;25.23;101393.16;107584;1238;58965;-73
2023/05/01 12:22:10;;;;;;;4.10;1.90;;;;;;;22.38;25.32;101390.60;107710;1239;59075;-73
2023/05/01 12:24:50;;;;;;;5.20;2.00;;;;;;;22.61;25.55;101387.55;107439;1249;73462;-73
2023/05/01 12:27:20;;;;;;;3.60;1.70;;;;;;;23.19;25.23;101384.21;107408;1251;62081;-72
2023/05/01 12:29:48;;;;;;;3.40;2.00;;;;;;;23.07;24.90;101381.37;107360;1241;70545;-72
2023/05/01 12:32:17;;;;;;;5.40;2.50;;;;;;;22.97;24.15;101380.14;109659;1241;63906;-73
2023/05/01 12:34:47;;;;;;;6.20;1.70;;;;;;;23.08;24.37;101380.40;109781;1241;57663;-73
2023/05/01 12:37:15;;;;;;;6.80;2.30;;;;;;;23.26;23.77;101378.45;109693;1238;60080;-73
2023/05/01 12:39:44;;;;;;;4.20;2.10;;;;;;;23.45;23.73;101379.11;108774;1240;63420;-72
2023/05/01 12:42:15;;;;;;;4.20;2.30;;;;;;;23.43;24.08;101385.78;107204;1239;60875;-72
2023/05/01 12:44:44;;;;;;;3.00;1.60;;;;;;;23.69;23.32;101377.73;107381;1241;59726;-73
2023/05/01 12:47:13;;;;;;;3.80;1.40;;;;;;;23.96;23.40;101383.05;107371;1244;63086;-73
2023/05/01 12:49:42;;;;;;;4.20;1.60;;;;;;;24.12;23.29;101378.52;107409;1241;61083;-73
2023/05/01 12:52:11;;;;;;;5.40;2.20;;;;;;;23.63;22.86;101384.71;107446;1250;62079;-72
2023/05/01 12:54:42;;;;;;;4.50;2.30;;;;;;;23.87;22.73;101381.02;107398;1251;64928;-73
2023/05/01 12:57:14;;;;;;;4.70;2.40;;;;;;;23.76;22.40;101379.61;107429;1248;60714;-73
2023/05/01 12:59:46;;;;;;;3.20;1.40;;;;;;;23.83;21.76;101384.38;107307;1244;70299;-72
2023/05/01 13:02:16;;;;;;;4.40;1.60;;;;;;;23.42;22.24;101376.05;107416;1251;74826;-72
2023/05/01 13:04:47;;;;;;;4.60;1.70;;;;;;;24.52;21.96;101384.92;107518;1238;60667;-74
2023/05/01 13:07:18;;;;;;;4.10;1.60;;;;;;;24.62;22.02;101376.40;107535;1241;60836;-74
2023/05/01 13:09:57;;;;;;;2.20;1.20;;;;;;;24.76;22.14;101377.77;107504;1251;62533;-71
2023/05/01 13:12:28;;;;;;;4.30;1.60;;;;;;;24.56;22.65;101372.98;107608;1238;71329;-72
2023/05/01 13:14:58;;;;;;;4.20;1.40;;;;;;;24.44;22.89;101372.74;107571;1241;60075;-72
2023/05/01 13:17:30;;;;;;;2.80;1.30;;;;;;;24.33;22.90;101381.36;107687;1245;64239;-73
2023/05/01 13:20:04;;;;;;;3.20;1.30;;;;;;;24.49;22.54;101381.94;107714;1248;57414;-74
2023/05/01 13:22:36;;;;;;;3.10;1.30;;;;;;;24.28;22.45;101374.61;107649;1238;61218;-73
2023/05/01 13:25:19;;;;;;;2.40;1.50;;;;;;;24.80;22.11;101382.09;107613;1247;62165;-72
2023/05/01 13:27:52;;;;;;;2.90;1.30;;;;;;;25.16;21.88;101382.98;107612;1238;72162;-71
2023/05/01 13:30:32;;;;;;;5.10;1.50;;;;;;;25.09;21.35;101388.39;107540;1241;60296;-73
2023/05/01 13:33:04;;;;;;;5.00;1.60;;;;;;;24.75;21.90;101379.37;107720;1248;62953;-75
2023/05/01 13:35:34;;;;;;;4.90;2.50;;;;;;;24.64;21.79;101378.50;107694;1241;61200;-73
2023/05/01 13:38:08;;;;;;;4.20;1.90;;;;;;;24.26;22.38;101381.09;107620;1249;57382;-71
2023/05/01 13:40:39;;;;;;;4.80;2.20;;;;;;;24.33;22.69;101384.33;107674;1250;73492;-72
2023/05/01 13:43:15;;;;;;;6.40;2.40;;;;;;;23.92;23.18;101389.22;107645;1239;72194;-72
2023/05/01 13:45:43;;;;;;;2.80;1.30;;;;;;;24.04;22.86;101383.33;107456;1238;70797;-73
2023/05/01 13:48:16;;;;;;;3.00;1.70;;;;;;;24.88;22.10;101387.65;107454;1242;73762;-73
2023/05/01 13:50:45;;;;;;;5.60;2.80;;;;;;;24.69;22.10;101383.16;107427;1239;60158;-73
2023/05/01 13:53:15;;;;;;;4.50;2.70;;;;;;;24.36;22.49;101385.94;107349;1241;58987;-72
2023/05/01 13:55:44;;;;;;;4.90;2.30;;;;;;;24.67;22.34;101384.33;107503;1238;63302;-71
2023/05/01 13:58:13;;;;;;;3.20;1.70;;;;;;;24.44;22.61;101389.42;107908;1239;61251;-74
2023/05/01 14:00:44;;;;;;;3.00;1.70;;;;;;;24.84;21.63;101390.39;107609;1238;70072;-73
2023/05/01 14:03:15;;;;;;;6.00;2.40;;;;;;;24.35;22.53;101383.23;107728;1241;73872;-72
2023/05/01 14:05:45;;;;;;;3.90;1.70;;;;;;;25.04;22.07;101389.85;107458;1238;60815;-73
2023/05/01 14:08:14;;;;;;;3.00;1.50;;;;;;;25.10;21.79;101386.55;107484;1248;57491;-73
2023/05/01 14:10:43;;;;;;;3.10;1.50;;;;;;;24.79;21.52;101382.35;107584;1250;62125;-72
2023/05/01 14:13:16;;;;;;;4.00;1.60;;;;;;;25.44;21.16;101388.73;107605;1242;61129;-72
2023/05/01 14:15:46;;;;;;;3.30;1.80;;;;;;;25.57;20.92;101387.49;107582;1249;59201;-73
2023/05/01 14:18:19;;;;;;;3.90;1.70;;;;;;;25.13;21.36;101390.10;107513;1251;63183;-72
2023/05/01 14:20:49;;;;;;;4.60;1.50;;;;;;;25.30;21.29;101385.98;107706;1239;59021;-72
2023/05/01 14:23:19;;;;;;;3.30;1.60;;;;;;;25.51;21.30;101390.85;107620;1239;60813;-72
2023/05/01 14:25:48;;;;;;;4.60;1.60;;;;;;;25.40;21.12;101391.51;107591;1241;63353;-72
2023/05/01 14:28:17;;;;;;;3.70;1.50;;;;;;;25.56;20.89;101393.45;107529;1242;60935;-72
2023/05/01 14:30:48;;;;;;;4.10;1.50;;;;;;;25.71;20.85;101387.85;107604;1251;60713;-72
2023/05/01 14:33:17;;;;;;;4.10;1.70;;;;;;;25.50;20.99;101396.84;107542;1244;74026;-72
2023/05/01 14:35:52;;;;;;;4.40;2.30;;;;;;;25.32;21.00;101397.27;107545;1241;60941;-72
2023/05/01 14:38:24;;;;;;;7.00;2.00;;;;;;;25.45;21.01;101394.86;107615;1238;61861;-72
2023/05/01 14:40:53;;;;;;;;;;;;;;;25.86;20.83;101401.13;107575;1241;62582;-71
2023/05/01 14:43:22;;;;;;;4.00;1.80;;;;;;;25.93;20.57;101393.30;107650;1239;71760;-72
2023/05/01 14:45:51;;;;;;;6.70;1.60;;;;;;;25.18;20.68;101402.16;107632;1239;69991;-73
2023/05/01 14:48:23;;;;;;;10.40;2.20;;;;;;;24.86;21.14;101393.16;107703;1244;64176;-73
2023/05/01 14:50:53;;;;;;;4.60;1.80;;;;;;;25.65;20.75;101388.34;107635;1239;61093;-72
2023/05/01 14:53:22;;;;;;;5.90;2.00;;;;;;;25.77;20.60;101385.28;107677;1242;57539;-72
2023/05/01 14:55:51;;;;;;;5.50;1.80;;;;;;;25.92;20.58;101384.65;107697;1240;62166;-72
2023/05/01 14:58:20;;;;;;;5.80;1.80;;;;;;;25.41;20.78;101388.77;107690;1240;61063;-73
2023/05/01 15:00:49;;;;;;;4.30;1.70;;;;;;;25.44;21.10;101382.45;107689;1239;68511;-72
2023/05/01 15:03:18;;;;;;;3.90;1.50;;;;;;;24.93;21.45;101386.61;107875;1239;72471;-72
2023/05/01 15:05:47;;;;;;;3.90;1.40;;;;;;;24.62;21.59;101388.49;107683;1238;60317;-72
2023/05/01 15:08:16;;;;;;;5.00;1.80;;;;;;;25.30;21.26;101385.64;107688;1249;60549;-72
2023/05/01 15:10:45;;;;;;;5.40;1.90;;;;;;;25.25;21.12;101383.02;107687;1237;72921;-72
2023/05/01 15:13:14;;;;;;;6.40;2.10;;;;;;;25.47;20.89;101382.24;107716;1238;72115;-71
2023/05/01 15:15:42;;;;;;;4.50;2.00;;;;;;;26.26;20.75;101375.80;107573;1238;71081;-73
2023/05/01 15:18:11;;;;;;;5.40;2.00;;;;;;;25.94;20.74;101379.48;107603;1237;74724;-72
2023/05/01 15:20:41;;;;;;;5.40;2.40;;;;;;;26.00;20.58;101383.02;107710;1239;60713;-71
2023/05/01 15:23:11;;;;;;;5.00;2.30;;;;;;;25.93;20.86;101382.30;107714;1239;60946;-73
2023/05/01 15:25:42;;;;;;;12.50;2.10;;;;;;;26.08;20.54;101380.48;107738;1250;73369;-71
2023/05/01 15:28:12;;;;;;;5.60;2.00;;;;;;;26.10;20.43;101381.04;107746;1239;61185;-71
2023/05/01 15:30:46;;;;;;;5.30;2.00;;;;;;;26.18;20.45;101386.06;107660;1239;70480;-72
2023/05/01 15:33:16;;;;;;;5.50;2.60;;;;;;;26.04;20.39;101383.40;107565;1242;64076;-72
2023/05/01 15:35:49;;;;;;;4.90;1.90;;;;;;;25.55;20.94;101379.86;107639;1239;60429;-72
2023/05/01 15:38:21;;;;;;;5.00;2.30;;;;;;;25.41;21.29;101385.89;107660;1239;60996;-72
2023/05/01 15:40:50;;;;;;;3.90;1.70;;;;;;;24.40;22.14;101383.64;107581;1244;73894;-72
2023/05/01 15:43:21;;;;;;;6.30;2.50;;;;;;;24.93;21.17;101384.54;107712;1238;71805;-73
2023/05/01 15:45:50;;;;;;;3.90;2.40;;;;;;;26.08;20.79;101384.02;107734;1249;70029;-73
2023/05/01 15:48:19;;;;;;;4.50;2.10;;;;;;;26.69;20.43;101384.99;107592;1242;62787;-72
2023/05/01 15:50:49;;;;;;;4.20;2.00;;;;;;;26.53;19.90;101386.50;107652;1239;62348;-71
2023/05/01 15:53:19;;;;;;;6.90;1.40;;;;;;;26.75;19.69;101385.53;107652;1239;61147;-72
2023/05/01 15:55:48;;;;;;;6.50;2.00;;;;;;;26.13;19.91;101382.10;109990;1239;73896;-72
2023/05/01 15:58:17;;;;;;;4.80;1.50;;;;;;;25.31;20.21;101384.93;109381;1241;72100;-72
2023/05/01 16:00:46;;;;;;;5.00;2.30;;;;;;;25.22;20.57;101384.86;107650;1249;69517;-72
2023/05/01 16:03:17;;;;;;;4.10;1.80;;;;;;;25.40;20.49;101383.17;107558;1242;63228;-74
2023/05/01 16:05:46;;;;;;;6.50;1.80;;;;;;;25.29;20.19;101384.90;107671;1242;60359;-72
2023/05/01 16:08:17;;;;;;;6.00;2.20;;;;;;;25.06;20.24;101377.36;107536;1238;61941;-72
2023/05/01 16:10:46;;;;;;;5.20;1.80;;;;;;;25.43;20.37;101386.00;107615;1248;74024;-72
2023/05/01 16:13:15;;;;;;;3.40;1.60;;;;;;;25.51;20.26;101380.17;107889;1242;73632;-71
2023/05/01 16:15:44;;;;;;;5.00;1.40;;;;;;;25.72;20.16;101388.40;107727;1242;60098;-70
2023/05/01 16:18:22;;;;;;;4.10;1.90;;;;;;;25.32;20.55;101390.70;108261;1241;62723;-72
2023/05/01 16:20:53;;;;;;;5.50;2.00;;;;;;;25.73;20.49;101397.75;109253;1239;60743;-75
2023/05/01 16:23:25;;;;;;;3.30;1.70;;;;;;;25.56;20.62;101397.20;109372;1241;58889;-72
2023/05/01 16:25:54;;;;;;;6.90;1.90;;;;;;;25.34;20.73;101397.82;107600;1242;62921;-72
2023/05/01 16:28:25;;;;;;;3.40;1.70;;;;;;;24.58;21.37;101400.64;107482;1250;61644;-75
2023/05/01 16:30:54;;;;;;;5.10;2.20;;;;;;;24.50;20.85;101398.15;107875;1238;70517;-79
2023/05/01 16:33:23;;;;;;;5.60;2.10;;;;;;;24.08;21.21;101395.69;107746;1237;74160;-72
2023/05/01 16:35:52;;;;;;;5.40;2.20;;;;;;;24.30;21.03;101396.67;107439;1239;60656;-72
2023/05/01 16:38:21;;;;;;;5.90;3.10;;;;;;;23.80;21.42;101397.27;107533;1250;62925;-75
2023/05/01 16:40:50;;;;;;;4.40;2.40;;;;;;;23.52;21.78;101394.35;107593;1242;62704;-74
2023/05/01 16:43:21;;;;;;;3.90;2.20;;;;;;;23.21;22.11;101396.17;107573;1242;61926;-73
2023/05/01 16:45:52;;;;;;;7.00;2.20;;;;;;;22.51;22.90;101402.54;107497;1238;69794;-73
2023/05/01 16:48:23;;;;;;;7.50;2.80;;;;;;;22.43;22.99;101408.05;107438;1242;74276;-77
2023/05/01 16:50:52;;;;;;;4.00;2.30;;;;;;;22.13;23.55;101411.62;107703;1239;59073;-74
2023/05/01 16:53:22;;;;;;;6.00;2.90;;;;;;;20.86;24.99;101410.79;107712;1238;61086;-73
2023/05/01 16:55:52;;;;;;;5.40;2.80;;;;;;;20.41;25.66;101413.54;107445;1238;74505;-69
2023/05/01 16:58:20;;;;;;;5.10;2.60;;;;;;;19.78;26.61;101413.71;109765;1238;72089;-73
2023/05/01 17:00:50;;;;;;;6.40;2.90;;;;;;;19.18;27.23;101419.14;107851;1239;69870;-73
2023/05/01 17:03:19;;;;;;;8.80;3.90;;;;;;;18.89;28.61;101418.63;108695;1239;73429;-73
2023/05/01 17:05:48;;;;;;;10.20;3.60;;;;;;;18.62;29.39;101418.02;107456;1239;61270;-73
2023/05/01 17:08:17;;;;;;;7.40;3.10;;;;;;;18.37;29.71;101423.89;107651;1238;61805;-76
2023/05/01 17:10:46;;;;;;;9.40;4.40;;;;;;;18.06;30.65;101425.70;107631;1242;73184;-73
2023/05/01 17:13:15;;;;;;;11.00;6.40;;;;;;;17.87;32.27;101425.92;107707;1245;72060;-76
2023/05/01 17:15:43;;;;;;;21.70;10.10;;;;;;;17.58;34.25;101430.44;107609;1251;70110;-76
2023/05/01 17:18:13;;;;;;;32.90;9.10;;;;;;;17.27;35.89;101432.08;107660;1242;65712;-73
2023/05/01 17:20:42;;;;;;;23.00;10.90;;;;;;;16.90;38.59;101437.24;107607;1239;60864;-77
2023/05/01 17:23:11;;;;;;;65.80;38.10;;;;;;;16.56;38.66;101444.19;107721;1242;60522;-75
2023/05/01 17:25:39;;;;;;;38.60;23.40;;;;;;;16.16;39.41;101444.14;107843;1247;73100;-73
2023/05/01 17:28:08;;;;;;;31.90;21.90;;;;;;;15.74;41.31;101448.31;107475;1239;61288;-72
2023/05/01 17:30:37;;;;;;;76.10;42.90;;;;;;;15.31;43.30;101453.23;107593;1248;60539;-72
2023/05/01 17:33:06;;;;;;;51.60;31.90;;;;;;;14.97;45.37;101455.36;107449;1242;63774;-71
2023/05/01 17:35:35;;;;;;;36.70;23.60;;;;;;;14.63;46.94;101458.06;107486;1239;59160;-72
2023/05/01 17:38:04;;;;;;;26.70;11.60;;;;;;;14.37;47.50;101464.02;107499;1241;59051;-72
2023/05/01 17:40:33;;;;;;;23.10;9.50;;;;;;;14.07;47.09;101463.66;107536;1239;73624;-72
2023/05/01 17:43:02;;;;;;;22.80;8.50;;;;;;;13.83;44.99;101464.66;107535;1238;72263;-72
2023/05/01 17:45:31;;;;;;;17.80;8.90;;;;;;;13.57;46.06;101476.47;107573;1239;69980;-73
2023/05/01 17:48:00;;;;;;;24.90;10.70;;;;;;;13.25;49.65;101482.98;107549;1239;73316;-74
2023/05/01 17:50:29;;;;;;;24.30;10.90;;;;;;;13.01;51.15;101482.73;107645;1239;58999;-73
2023/05/01 17:52:58;;;;;;;19.60;9.60;;;;;;;12.82;51.84;101487.91;107543;1241;59126;-73
2023/05/01 17:55:27;;;;;;;18.40;9.60;;;;;;;12.65;52.69;101495.45;107613;1245;62428;-72
2023/05/01 17:57:56;;;;;;;15.80;7.20;;;;;;;12.46;53.68;101498.48;107650;1238;71719;-72
2023/05/01 18:00:26;;;;;;;15.00;7.10;;;;;;;12.30;53.59;101499.20;107633;1238;71385;-71
2023/05/01 18:02:55;;;;;;;9.50;5.50;;;;;;;12.16;52.12;101499.27;107580;1239;63225;-70
2023/05/01 18:05:24;;;;;;;12.00;4.50;;;;;;;11.99;49.75;101500.03;107516;1242;58984;-71
2023/05/01 18:07:53;;;;;;;10.70;4.40;;;;;;;11.74;51.92;101504.59;107577;1244;61228;-70
2023/05/01 18:10:22;;;;;;;10.30;4.40;;;;;;;11.59;53.84;101502.27;107723;1237;73266;-69
2023/05/01 18:12:53;;;;;;;8.60;4.70;;;;;;;11.43;55.22;101509.89;107572;1238;71387;-72
2023/05/01 18:15:22;;;;;;;8.30;4.60;;;;;;;11.24;57.92;101517.35;107421;1248;70483;-70
2023/05/01 18:17:51;;;;;;;15.70;6.60;;;;;;;11.12;58.68;101519.33;107666;1239;73246;-71
2023/05/01 18:20:20;;;;;;;17.10;7.10;;;;;;;11.00;58.85;101520.95;107595;1241;58955;-69
2023/05/01 18:22:49;;;;;;;14.80;6.70;;;;;;;10.86;56.77;101521.95;107649;1239;58937;-69
2023/05/01 18:25:18;;;;;;;14.20;7.20;;;;;;;10.72;58.57;101529.44;107620;1250;62429;-70
2023/05/01 18:27:48;;;;;;;16.20;6.40;;;;;;;10.62;58.57;101530.91;107637;1246;72278;-71
2023/05/01 18:30:17;;;;;;;12.90;5.80;;;;;;;10.55;57.58;101535.31;107687;1249;59542;-71
2023/05/01 18:32:47;;;;;;;13.80;6.00;;;;;;;10.46;55.11;101534.80;107482;1246;62256;-71
2023/05/01 18:35:17;;;;;;;14.90;6.40;;;;;;;10.34;55.84;101532.55;107593;1241;60947;-71
2023/05/01 18:37:46;;;;;;;15.00;6.10;;;;;;;10.21;59.87;101537.29;108099;1251;57326;-73
2023/05/01 18:40:15;;;;;;;22.70;7.20;;;;;;;10.14;62.19;101543.30;108020;1249;62167;-72
2023/05/01 18:42:44;;;;;;;20.90;7.20;;;;;;;10.07;63.02;101546.94;107668;1239;61573;-72
2023/05/01 18:45:13;;;;;;;10.80;5.00;;;;;;;9.97;63.94;101549.60;107492;1242;59196;-73
2023/05/01 18:47:42;;;;;;;13.50;5.00;;;;;;;9.82;64.91;101545.38;107981;1239;72503;-72
2023/05/01 18:50:12;;;;;;;9.60;4.60;;;;;;;9.76;64.48;101547.64;107643;1241;58920;-73
2023/05/01 18:52:41;;;;;;;6.90;3.60;;;;;;;9.71;61.59;101550.17;107694;1238;60113;-74
2023/05/01 18:55:10;;;;;;;7.10;3.00;;;;;;;9.64;58.84;101553.90;107679;1249;73676;-77
2023/05/01 18:57:43;;;;;;;11.90;4.40;;;;;;;9.54;60.51;101557.08;107949;1239;61144;-74
2023/05/01 19:00:15;;;;;;;8.30;4.00;;;;;;;9.46;63.76;101557.85;107608;1244;71131;-73
2023/05/01 19:02:49;;;;;;;7.50;3.80;;;;;;;9.43;64.90;101564.96;107573;1241;72984;-74
2023/05/01 19:05:21;;;;;;;7.30;4.40;;;;;;;9.40;64.19;101569.08;107573;1239;60608;-70
2023/05/01 19:07:50;;;;;;;6.10;3.50;;;;;;;9.48;64.08;101575.83;109410;1239;57836;-73
2023/05/01 19:10:19;;;;;;;8.10;3.70;;;;;;;9.54;63.54;101577.72;107492;1242;63027;-70
2023/05/01 19:12:48;;;;;;;8.50;3.70;;;;;;;9.53;63.80;101582.49;107442;1241;60944;-71
2023/05/01 19:15:17;;;;;;;11.70;4.40;;;;;;;9.48;64.77;101583.95;107398;1239;59336;-70